sensor_id;sensor_type;location;lat;lon;timestamp;pressure;altitude;pressure_sealevel;temperature;humidity
65190;BME280;51777;53.570;9.984;2023-02-28T00:00:17;102913.22;;;4.42;100.00
65190;BME280;51777;53.570;9.984;2023-02-28T00:02:43;102907.31;;;4.40;100.00
65190;BME280;51777;53.570;9.984;2023-02-28T00:05:11;102909.03;;;4.40;100.00
65190;BME280;51777;53.570;9.984;2023-02-28T00:07:37;102912.66;;;4.34;100.00
65190;BME280;51777;53.570;9.984;2023-02-28T00:10:05;102907.56;;;4.33;100.00
65190;BME280;51777;53.570;9.984;2023-02-28T00:12:33;102911.34;;;4.23;100.00
65190;BME280;51777;53.570;9.984;2023-02-28T00:14:58;102905.41;;;4.21;100.00
65190;BME280;51777;53.570;9.984;2023-02-28T00:17:24;102911.25;;;4.26;100.00
65190;BME280;51777;53.570;9.984;2023-02-28T00:19:50;102914.69;;;4.25;100.00
65190;BME280;51777;53.570;9.984;2023-02-28T00:22:18;102916.38;;;4.26;100.00
65190;BME280;51777;53.570;9.984;2023-02-28T00:24:43;102909.63;;;4.23;100.00
65190;BME280;51777;53.570;9.984;2023-02-28T00:27:10;102913.91;;;4.23;100.00
65190;BME280;51777;53.570;9.984;2023-02-28T00:29:35;102915.66;;;4.21;100.00
65190;BME280;51777;53.570;9.984;2023-02-28T00:32:01;102911.44;;;4.20;100.00
65190;BME280;51777;53.570;9.984;2023-02-28T00:34:26;102910.66;;;4.18;100.00
65190;BME280;51777;53.570;9.984;2023-02-28T00:36:51;102910.88;;;4.11;100.00
65190;BME280;51777;53.570;9.984;2023-02-28T00:39:17;102909.97;;;4.12;100.00
65190;BME280;51777;53.570;9.984;2023-02-28T00:41:43;102911.81;;;4.07;100.00
65190;BME280;51777;53.570;9.984;2023-02-28T00:44:08;102908.50;;;4.05;100.00
65190;BME280;51777;53.570;9.984;2023-02-28T00:46:34;102912.81;;;4.03;100.00
65190;BME280;51777;53.570;9.984;2023-02-28T00:48:59;102913.81;;;3.99;100.00
65190;BME280;51777;53.570;9.984;2023-02-28T00:51:25;102922.41;;;3.97;100.00
65190;BME280;51777;53.570;9.984;2023-02-28T00:53:50;102908.94;;;3.92;100.00
65190;BME280;51777;53.570;9.984;2023-02-28T00:56:15;102918.38;;;3.90;100.00
65190;BME280;51777;53.570;9.984;2023-02-28T00:58:41;102921.88;;;3.87;100.00
65190;BME280;51777;53.570;9.984;2023-02-28T01:01:06;102916.84;;;3.84;100.00
65190;BME280;51777;53.570;9.984;2023-02-28T01:03:32;102911.00;;;3.80;100.00
65190;BME280;51777;53.570;9.984;2023-02-28T01:05:57;102920.50;;;3.77;100.00
65190;BME280;51777;53.570;9.984;2023-02-28T01:08:23;102915.28;;;3.80;100.00
65190;BME280;51777;53.570;9.984;2023-02-28T01:10:49;102912.94;;;3.74;100.00
65190;BME280;51777;53.570;9.984;2023-02-28T01:13:14;102922.31;;;3.73;100.00
65190;BME280;51777;53.570;9.984;2023-02-28T01:15:43;102925.63;;;3.77;100.00
65190;BME280;51777;53.570;9.984;2023-02-28T01:18:10;102927.28;;;3.78;100.00
65190;BME280;51777;53.570;9.984;2023-02-28T01:20:37;102926.28;;;3.82;100.00
65190;BME280;51777;53.570;9.984;2023-02-28T01:23:02;102917.72;;;3.85;100.00
65190;BME280;51777;53.570;9.984;2023-02-28T01:25:28;102927.91;;;3.86;100.00
65190;BME280;51777;53.570;9.984;2023-02-28T01:27:53;102933.19;;;3.80;100.00
65190;BME280;51777;53.570;9.984;2023-02-28T01:30:19;102931.47;;;3.80;100.00
65190;BME280;51777;53.570;9.984;2023-02-28T01:32:44;102927.06;;;3.84;100.00
65190;BME280;51777;53.570;9.984;2023-02-28T01:35:10;102917.66;;;3.86;100.00
65190;BME280;51777;53.570;9.984;2023-02-28T01:37:35;102923.84;;;3.79;100.00
65190;BME280;51777;53.570;9.984;2023-02-28T01:40:01;102931.19;;;3.90;100.00
65190;BME280;51777;53.570;9.984;2023-02-28T01:42:26;102927.63;;;3.94;100.00
65190;BME280;51777;53.570;9.984;2023-02-28T01:47:32;102915.84;;;3.90;100.00
65190;BME280;51777;53.570;9.984;2023-02-28T01:49:58;102921.69;;;3.93;100.00
65190;BME280;51777;53.570;9.984;2023-02-28T01:52:26;102916.50;;;3.95;100.00
65190;BME280;51777;53.570;9.984;2023-02-28T01:54:55;102920.94;;;3.90;100.00
65190;BME280;51777;53.570;9.984;2023-02-28T01:57:32;102909.22;;;3.82;100.00
65190;BME280;51777;53.570;9.984;2023-02-28T02:00:06;102912.66;;;3.81;100.00
65190;BME280;51777;53.570;9.984;2023-02-28T02:02:34;102914.34;;;3.82;100.00
65190;BME280;51777;53.570;9.984;2023-02-28T02:05:07;102920.28;;;3.83;100.00
65190;BME280;51777;53.570;9.984;2023-02-28T02:07:36;102920.28;;;3.83;100.00
65190;BME280;51777;53.570;9.984;2023-02-28T02:10:10;102917.84;;;3.80;100.00
65190;BME280;51777;53.570;9.984;2023-02-28T02:16:00;102921.28;;;3.79;100.00
65190;BME280;51777;53.570;9.984;2023-02-28T02:18:54;102920.59;;;3.74;100.00
65190;BME280;51777;53.570;9.984;2023-02-28T02:30:12;102922.81;;;3.57;100.00
65190;BME280;51777;53.570;9.984;2023-02-28T02:32:49;102912.00;;;3.48;100.00
65190;BME280;51777;53.570;9.984;2023-02-28T02:41:22;102903.94;;;3.33;100.00
65190;BME280;51777;53.570;9.984;2023-02-28T02:43:53;102904.19;;;3.25;100.00
65190;BME280;51777;53.570;9.984;2023-02-28T02:48:51;102904.97;;;3.27;100.00
65190;BME280;51777;53.570;9.984;2023-02-28T02:51:22;102897.47;;;3.21;100.00
65190;BME280;51777;53.570;9.984;2023-02-28T02:53:55;102903.56;;;3.17;100.00
65190;BME280;51777;53.570;9.984;2023-02-28T02:56:23;102899.41;;;3.13;100.00
65190;BME280;51777;53.570;9.984;2023-02-28T02:58:53;102893.44;;;3.14;100.00
65190;BME280;51777;53.570;9.984;2023-02-28T03:01:23;102893.59;;;3.08;100.00
65190;BME280;51777;53.570;9.984;2023-02-28T03:04:01;102898.88;;;3.02;100.00
65190;BME280;51777;53.570;9.984;2023-02-28T03:06:27;102893.94;;;2.95;100.00
65190;BME280;51777;53.570;9.984;2023-02-28T03:08:53;102903.41;;;2.92;100.00
65190;BME280;51777;53.570;9.984;2023-02-28T03:11:19;102903.56;;;2.87;100.00
65190;BME280;51777;53.570;9.984;2023-02-28T03:16:48;102900.31;;;2.81;100.00
65190;BME280;51777;53.570;9.984;2023-02-28T03:28:44;102912.59;;;2.68;100.00
65190;BME280;51777;53.570;9.984;2023-02-28T03:33:56;102903.44;;;2.61;100.00
65190;BME280;51777;53.570;9.984;2023-02-28T03:36:35;102906.00;;;2.59;100.00
65190;BME280;51777;53.570;9.984;2023-02-28T03:39:11;102912.16;;;2.52;100.00
65190;BME280;51777;53.570;9.984;2023-02-28T03:41:46;102913.97;;;2.49;100.00
65190;BME280;51777;53.570;9.984;2023-02-28T03:44:32;102913.13;;;2.47;100.00
65190;BME280;51777;53.570;9.984;2023-02-28T03:47:03;102911.38;;;2.50;100.00
65190;BME280;51777;53.570;9.984;2023-02-28T03:52:34;102905.78;;;2.34;100.00
65190;BME280;51777;53.570;9.984;2023-02-28T03:55:04;102910.97;;;2.31;100.00
65190;BME280;51777;53.570;9.984;2023-02-28T03:57:41;102916.97;;;2.30;100.00
65190;BME280;51777;53.570;9.984;2023-02-28T04:00:16;102920.31;;;2.32;100.00
65190;BME280;51777;53.570;9.984;2023-02-28T04:02:44;102914.50;;;2.27;100.00
65190;BME280;51777;53.570;9.984;2023-02-28T04:05:09;102913.66;;;2.27;100.00
65190;BME280;51777;53.570;9.984;2023-02-28T04:07:35;102917.22;;;2.20;100.00
65190;BME280;51777;53.570;9.984;2023-02-28T04:10:00;102917.34;;;2.15;100.00
65190;BME280;51777;53.570;9.984;2023-02-28T04:12:26;102910.72;;;2.08;100.00
65190;BME280;51777;53.570;9.984;2023-02-28T04:14:51;102912.47;;;2.06;100.00
65190;BME280;51777;53.570;9.984;2023-02-28T04:17:17;102909.13;;;2.04;100.00
65190;BME280;51777;53.570;9.984;2023-02-28T04:19:43;102914.34;;;1.98;100.00
65190;BME280;51777;53.570;9.984;2023-02-28T04:22:09;102913.56;;;1.96;100.00
65190;BME280;51777;53.570;9.984;2023-02-28T04:24:35;102916.91;;;1.99;100.00
65190;BME280;51777;53.570;9.984;2023-02-28T04:27:01;102911.84;;;1.96;100.00
65190;BME280;51777;53.570;9.984;2023-02-28T04:29:29;102915.34;;;1.92;100.00
65190;BME280;51777;53.570;9.984;2023-02-28T04:31:55;102921.31;;;1.91;100.00
65190;BME280;51777;53.570;9.984;2023-02-28T04:34:23;102915.50;;;1.85;100.00
65190;BME280;51777;53.570;9.984;2023-02-28T04:36:48;102915.66;;;1.79;100.00
65190;BME280;51777;53.570;9.984;2023-02-28T04:39:16;102913.13;;;1.79;100.00
65190;BME280;51777;53.570;9.984;2023-02-28T04:41:43;102912.38;;;1.75;100.00
65190;BME280;51777;53.570;9.984;2023-02-28T04:44:09;102917.47;;;1.73;100.00
65190;BME280;51777;53.570;9.984;2023-02-28T04:46:34;102921.78;;;1.71;100.00
65190;BME280;51777;53.570;9.984;2023-02-28T04:49:00;102916.63;;;1.74;100.00
65190;BME280;51777;53.570;9.984;2023-02-28T04:51:25;102918.25;;;1.77;100.00
65190;BME280;51777;53.570;9.984;2023-02-28T04:53:51;102919.22;;;1.71;100.00
65190;BME280;51777;53.570;9.984;2023-02-28T04:56:17;102915.88;;;1.69;100.00
65190;BME280;51777;53.570;9.984;2023-02-28T04:58:43;102923.44;;;1.72;100.00
65190;BME280;51777;53.570;9.984;2023-02-28T05:01:27;102927.56;;;1.80;100.00
65190;BME280;51777;53.570;9.984;2023-02-28T05:03:54;102924.97;;;1.81;100.00
65190;BME280;51777;53.570;9.984;2023-02-28T05:06:20;102924.13;;;1.81;100.00
65190;BME280;51777;53.570;9.984;2023-02-28T05:08:47;102923.25;;;1.82;100.00
65190;BME280;51777;53.570;9.984;2023-02-28T05:13:46;102927.75;;;1.70;100.00
65190;BME280;51777;53.570;9.984;2023-02-28T05:16:11;102926.28;;;1.60;100.00
65190;BME280;51777;53.570;9.984;2023-02-28T05:18:37;102929.84;;;1.53;100.00
65190;BME280;51777;53.570;9.984;2023-02-28T05:21:03;102927.44;;;1.45;100.00
65190;BME280;51777;53.570;9.984;2023-02-28T05:23:29;102934.22;;;1.46;100.00
65190;BME280;51777;53.570;9.984;2023-02-28T05:25:56;102935.91;;;1.47;100.00
65190;BME280;51777;53.570;9.984;2023-02-28T05:28:22;102933.31;;;1.51;100.00
65190;BME280;51777;53.570;9.984;2023-02-28T05:30:48;102932.41;;;1.53;100.00
65190;BME280;51777;53.570;9.984;2023-02-28T05:33:13;102933.44;;;1.44;100.00
65190;BME280;51777;53.570;9.984;2023-02-28T05:35:40;102937.00;;;1.37;100.00
65190;BME280;51777;53.570;9.984;2023-02-28T05:38:05;102935.38;;;1.32;100.00
65190;BME280;51777;53.570;9.984;2023-02-28T05:40:31;102935.28;;;1.36;100.00
65190;BME280;51777;53.570;9.984;2023-02-28T05:42:56;102940.41;;;1.35;100.00
65190;BME280;51777;53.570;9.984;2023-02-28T05:45:22;102940.53;;;1.30;100.00
65190;BME280;51777;53.570;9.984;2023-02-28T05:47:47;102933.59;;;1.37;100.00
65190;BME280;51777;53.570;9.984;2023-02-28T05:50:12;102930.19;;;1.38;100.00
65190;BME280;51777;53.570;9.984;2023-02-28T05:52:38;102942.22;;;1.30;100.00
65190;BME280;51777;53.570;9.984;2023-02-28T05:55:03;102939.88;;;1.21;100.00
65190;BME280;51777;53.570;9.984;2023-02-28T05:57:29;102946.75;;;1.17;100.00
65190;BME280;51777;53.570;9.984;2023-02-28T05:59:55;102944.16;;;1.18;100.00
65190;BME280;51777;53.570;9.984;2023-02-28T06:02:20;102943.31;;;1.18;100.00
65190;BME280;51777;53.570;9.984;2023-02-28T06:04:46;102948.34;;;1.21;100.00
65190;BME280;51777;53.570;9.984;2023-02-28T06:07:11;102947.53;;;1.19;100.00
65190;BME280;51777;53.570;9.984;2023-02-28T06:09:37;102949.25;;;1.18;100.00
65190;BME280;51777;53.570;9.984;2023-02-28T06:12:04;102953.47;;;1.20;100.00
65190;BME280;51777;53.570;9.984;2023-02-28T06:14:32;102955.00;;;1.28;100.00
65190;BME280;51777;53.570;9.984;2023-02-28T06:16:59;102955.91;;;1.26;100.00
65190;BME280;51777;53.570;9.984;2023-02-28T06:19:24;102948.94;;;1.34;100.00
65190;BME280;51777;53.570;9.984;2023-02-28T06:21:52;102954.19;;;1.28;100.00
65190;BME280;51777;53.570;9.984;2023-02-28T06:24:18;102954.28;;;1.22;100.00
65190;BME280;51777;53.570;9.984;2023-02-28T06:26:44;102957.81;;;1.16;100.00
65190;BME280;51777;53.570;9.984;2023-02-28T06:29:10;102956.19;;;1.12;100.00
65190;BME280;51777;53.570;9.984;2023-02-28T06:31:35;102963.84;;;1.10;100.00
65190;BME280;51777;53.570;9.984;2023-02-28T06:34:00;102962.16;;;1.09;100.00
65190;BME280;51777;53.570;9.984;2023-02-28T06:36:27;102969.00;;;1.07;100.00
65190;BME280;51777;53.570;9.984;2023-02-28T06:38:53;102974.06;;;1.09;100.00
65190;BME280;51777;53.570;9.984;2023-02-28T06:41:26;102969.75;;;1.14;100.00
65190;BME280;51777;53.570;9.984;2023-02-28T06:43:52;102969.63;;;1.18;100.00
65190;BME280;51777;53.570;9.984;2023-02-28T06:46:18;102971.31;;;1.20;100.00
65190;BME280;51777;53.570;9.984;2023-02-28T06:48:44;102963.69;;;1.18;100.00
65190;BME280;51777;53.570;9.984;2023-02-28T06:51:13;102970.41;;;1.22;100.00
65190;BME280;51777;53.570;9.984;2023-02-28T06:53:39;102971.13;;;3.38;100.00
65190;BME280;51777;53.570;9.984;2023-02-28T06:56:07;102977.44;;;6.24;100.00
65190;BME280;51777;53.570;9.984;2023-02-28T06:58:33;102988.75;;;7.76;100.00
65190;BME280;51777;53.570;9.984;2023-02-28T07:00:59;102995.81;;;8.26;100.00
65190;BME280;51777;53.570;9.984;2023-02-28T07:03:25;102994.72;;;8.13;100.00
65190;BME280;51777;53.570;9.984;2023-02-28T07:05:50;102992.56;;;8.40;100.00
65190;BME280;51777;53.570;9.984;2023-02-28T07:08:16;103011.97;;;9.15;100.00
65190;BME280;51777;53.570;9.984;2023-02-28T07:10:41;103005.28;;;9.44;100.00
65190;BME280;51777;53.570;9.984;2023-02-28T07:13:07;103010.97;;;9.17;100.00
65190;BME280;51777;53.570;9.984;2023-02-28T07:15:34;103010.78;;;9.04;100.00
65190;BME280;51777;53.570;9.984;2023-02-28T07:18:00;103027.25;;;10.74;100.00
65190;BME280;51777;53.570;9.984;2023-02-28T07:20:26;103020.09;;;12.04;100.00
65190;BME280;51777;53.570;9.984;2023-02-28T07:22:51;103028.38;;;12.61;100.00
65190;BME280;51777;53.570;9.984;2023-02-28T07:25:27;103032.63;;;13.99;100.00
65190;BME280;51777;53.570;9.984;2023-02-28T07:27:53;103036.38;;;13.35;100.00
65190;BME280;51777;53.570;9.984;2023-02-28T07:30:19;103032.00;;;11.65;100.00
65190;BME280;51777;53.570;9.984;2023-02-28T07:32:45;103029.72;;;11.61;100.00
65190;BME280;51777;53.570;9.984;2023-02-28T07:35:10;103037.13;;;12.99;100.00
65190;BME280;51777;53.570;9.984;2023-02-28T07:37:36;103029.22;;;12.49;100.00
65190;BME280;51777;53.570;9.984;2023-02-28T07:40:07;103014.59;;;9.93;100.00
65190;BME280;51777;53.570;9.984;2023-02-28T07:42:34;103016.34;;;8.28;100.00
65190;BME280;51777;53.570;9.984;2023-02-28T07:45:00;103013.19;;;8.40;100.00
65190;BME280;51777;53.570;9.984;2023-02-28T07:47:26;103025.56;;;9.18;100.00
65190;BME280;51777;53.570;9.984;2023-02-28T07:49:51;103020.50;;;10.41;100.00
65190;BME280;51777;53.570;9.984;2023-02-28T07:52:16;103023.00;;;9.18;100.00
65190;BME280;51777;53.570;9.984;2023-02-28T07:54:42;103018.75;;;8.13;100.00
65190;BME280;51777;53.570;9.984;2023-02-28T07:57:07;103016.97;;;8.85;100.00
65190;BME280;51777;53.570;9.984;2023-02-28T07:59:33;103034.47;;;11.11;100.00
65190;BME280;51777;53.570;9.984;2023-02-28T08:01:59;103047.28;;;14.24;100.00
65190;BME280;51777;53.570;9.984;2023-02-28T08:04:24;103056.31;;;17.15;100.00
65190;BME280;51777;53.570;9.984;2023-02-28T08:06:50;103068.06;;;18.18;97.25
65190;BME280;51777;53.570;9.984;2023-02-28T08:09:18;103058.81;;;16.95;98.79
65190;BME280;51777;53.570;9.984;2023-02-28T08:11:43;103048.84;;;14.38;100.00
65190;BME280;51777;53.570;9.984;2023-02-28T08:14:09;103050.59;;;13.55;100.00
65190;BME280;51777;53.570;9.984;2023-02-28T08:16:34;103040.03;;;13.07;100.00
65190;BME280;51777;53.570;9.984;2023-02-28T08:19:00;103046.38;;;12.90;100.00
65190;BME280;51777;53.570;9.984;2023-02-28T08:21:25;103051.91;;;14.32;100.00
65190;BME280;51777;53.570;9.984;2023-02-28T08:23:51;103056.13;;;13.37;100.00
65190;BME280;51777;53.570;9.984;2023-02-28T08:26:17;103053.97;;;14.39;100.00
65190;BME280;51777;53.570;9.984;2023-02-28T08:28:43;103059.78;;;17.25;100.00
65190;BME280;51777;53.570;9.984;2023-02-28T08:31:10;103071.44;;;20.40;94.36
65190;BME280;51777;53.570;9.984;2023-02-28T08:33:36;103092.59;;;22.34;94.76
65190;BME280;51777;53.570;9.984;2023-02-28T08:36:02;103094.13;;;24.39;91.25
65190;BME280;51777;53.570;9.984;2023-02-28T08:38:28;103099.56;;;25.04;91.20
65190;BME280;51777;53.570;9.984;2023-02-28T08:41:00;103103.16;;;26.61;89.31
65190;BME280;51777;53.570;9.984;2023-02-28T08:43:27;103100.09;;;24.85;88.03
65190;BME280;51777;53.570;9.984;2023-02-28T08:45:53;103109.75;;;25.37;87.30
65190;BME280;51777;53.570;9.984;2023-02-28T08:48:18;103098.91;;;25.53;88.98
65190;BME280;51777;53.570;9.984;2023-02-28T08:50:56;103107.34;;;27.05;86.96
65190;BME280;51777;53.570;9.984;2023-02-28T08:53:22;103114.50;;;28.71;87.41
65190;BME280;51777;53.570;9.984;2023-02-28T08:55:57;103115.63;;;29.15;85.64
65190;BME280;51777;53.570;9.984;2023-02-28T08:58:23;103121.63;;;29.80;86.03
65190;BME280;51777;53.570;9.984;2023-02-28T09:00:48;103131.72;;;29.71;84.97
65190;BME280;51777;53.570;9.984;2023-02-28T09:03:14;103118.63;;;29.25;85.67
65190;BME280;51777;53.570;9.984;2023-02-28T09:05:39;103113.47;;;27.05;85.23
65190;BME280;51777;53.570;9.984;2023-02-28T09:08:05;103116.44;;;27.37;85.67
65190;BME280;51777;53.570;9.984;2023-02-28T09:10:30;103103.97;;;25.48;86.45
65190;BME280;51777;53.570;9.984;2023-02-28T09:12:56;103110.00;;;25.06;87.20
65190;BME280;51777;53.570;9.984;2023-02-28T09:15:21;103099.09;;;23.96;87.59
65190;BME280;51777;53.570;9.984;2023-02-28T09:17:46;103105.56;;;24.98;85.82
65190;BME280;51777;53.570;9.984;2023-02-28T09:20:12;103116.34;;;26.26;86.13
65190;BME280;51777;53.570;9.984;2023-02-28T09:22:37;103125.81;;;26.08;85.86
65190;BME280;51777;53.570;9.984;2023-02-28T09:25:03;103106.56;;;25.27;86.25
65190;BME280;51777;53.570;9.984;2023-02-28T09:27:30;103111.41;;;24.64;86.25
65190;BME280;51777;53.570;9.984;2023-02-28T09:29:56;103111.69;;;23.55;86.50
65190;BME280;51777;53.570;9.984;2023-02-28T09:32:21;103107.53;;;24.37;86.86
65190;BME280;51777;53.570;9.984;2023-02-28T09:34:47;103101.41;;;23.91;86.75
65190;BME280;51777;53.570;9.984;2023-02-28T09:37:12;103100.78;;;21.98;87.96
65190;BME280;51777;53.570;9.984;2023-02-28T09:39:37;103100.34;;;21.52;88.42
65190;BME280;51777;53.570;9.984;2023-02-28T09:42:20;103091.19;;;19.46;89.33
65190;BME280;51777;53.570;9.984;2023-02-28T09:44:47;103094.66;;;18.43;89.85
65190;BME280;51777;53.570;9.984;2023-02-28T09:47:34;103094.41;;;17.57;90.67
65190;BME280;51777;53.570;9.984;2023-02-28T09:50:22;103095.06;;;17.90;90.45
65190;BME280;51777;53.570;9.984;2023-02-28T09:52:53;103097.88;;;17.68;90.81
65190;BME280;51777;53.570;9.984;2023-02-28T09:57:51;103106.16;;;20.96;88.02
65190;BME280;51777;53.570;9.984;2023-02-28T10:00:24;103118.94;;;22.42;87.47
65190;BME280;51777;53.570;9.984;2023-02-28T10:05:53;103126.59;;;23.79;85.52
65190;BME280;51777;53.570;9.984;2023-02-28T10:08:35;103131.16;;;25.71;84.77
65190;BME280;51777;53.570;9.984;2023-02-28T10:11:07;103136.53;;;26.42;85.53
65190;BME280;51777;53.570;9.984;2023-02-28T10:13:37;103135.72;;;27.04;85.69
65190;BME280;51777;53.570;9.984;2023-02-28T10:19:02;103125.94;;;25.63;85.82
65190;BME280;51777;53.570;9.984;2023-02-28T10:21:37;103116.84;;;23.79;85.44
65190;BME280;51777;53.570;9.984;2023-02-28T10:24:32;103112.03;;;24.06;85.62
65190;BME280;51777;53.570;9.984;2023-02-28T10:27:06;103105.75;;;24.82;86.03
65190;BME280;51777;53.570;9.984;2023-02-28T10:29:40;103107.28;;;24.62;86.07
65190;BME280;51777;53.570;9.984;2023-02-28T10:32:09;103104.81;;;24.22;86.89
65190;BME280;51777;53.570;9.984;2023-02-28T10:34:35;103107.53;;;23.91;87.38
65190;BME280;51777;53.570;9.984;2023-02-28T10:37:01;103099.53;;;23.77;87.46
65190;BME280;51777;53.570;9.984;2023-02-28T10:42:04;103101.91;;;21.71;88.01
65190;BME280;51777;53.570;9.984;2023-02-28T10:44:32;103085.81;;;19.92;88.60
65190;BME280;51777;53.570;9.984;2023-02-28T10:46:58;103084.53;;;19.79;89.66
65190;BME280;51777;53.570;9.984;2023-02-28T10:49:28;103079.94;;;18.03;90.14
65190;BME280;51777;53.570;9.984;2023-02-28T10:51:57;103083.31;;;18.71;90.76
65190;BME280;51777;53.570;9.984;2023-02-28T10:54:28;103079.84;;;17.65;90.12
65190;BME280;51777;53.570;9.984;2023-02-28T10:57:18;103087.06;;;17.92;91.48
65190;BME280;51777;53.570;9.984;2023-02-28T10:59:44;103088.38;;;18.92;90.50
65190;BME280;51777;53.570;9.984;2023-02-28T11:04:54;103084.63;;;20.22;90.09
65190;BME280;51777;53.570;9.984;2023-02-28T11:07:22;103091.06;;;20.98;89.29
65190;BME280;51777;53.570;9.984;2023-02-28T11:09:50;103091.34;;;20.43;88.28
65190;BME280;51777;53.570;9.984;2023-02-28T11:12:27;103082.16;;;20.65;88.69
65190;BME280;51777;53.570;9.984;2023-02-28T11:17:56;103092.56;;;20.74;88.01
65190;BME280;51777;53.570;9.984;2023-02-28T11:20:24;103089.41;;;20.71;88.01
65190;BME280;51777;53.570;9.984;2023-02-28T11:22:51;103089.13;;;20.74;89.26
65190;BME280;51777;53.570;9.984;2023-02-28T11:25:25;103085.56;;;20.39;88.16
65190;BME280;51777;53.570;9.984;2023-02-28T11:27:54;103077.50;;;19.24;89.44
65190;BME280;51777;53.570;9.984;2023-02-28T11:30:40;103077.91;;;20.28;88.51
65190;BME280;51777;53.570;9.984;2023-02-28T11:35:48;103079.50;;;20.03;89.81
65190;BME280;51777;53.570;9.984;2023-02-28T11:38:15;103069.91;;;19.76;89.80
65190;BME280;51777;53.570;9.984;2023-02-28T11:46:52;103050.28;;;15.55;92.42
65190;BME280;51777;53.570;9.984;2023-02-28T11:49:32;103050.69;;;15.17;92.91
65190;BME280;51777;53.570;9.984;2023-02-28T11:58:12;103029.41;;;13.35;94.86
65190;BME280;51777;53.570;9.984;2023-02-28T12:03:26;103027.03;;;13.69;94.35
65190;BME280;51777;53.570;9.984;2023-02-28T12:16:49;103018.41;;;17.09;91.90
65190;BME280;51777;53.570;9.984;2023-02-28T12:19:42;103016.75;;;17.39;91.25
65190;BME280;51777;53.570;9.984;2023-02-28T12:22:32;103014.00;;;16.69;91.35
65190;BME280;51777;53.570;9.984;2023-02-28T12:27:45;102997.38;;;17.01;92.08
65190;BME280;51777;53.570;9.984;2023-02-28T12:30:19;102998.22;;;16.29;91.30
65190;BME280;51777;53.570;9.984;2023-02-28T12:32:51;102994.63;;;16.30;92.87
65190;BME280;51777;53.570;9.984;2023-02-28T12:35:23;102989.59;;;15.97;92.55
65190;BME280;51777;53.570;9.984;2023-02-28T12:37:55;102986.72;;;16.21;92.85
65190;BME280;51777;53.570;9.984;2023-02-28T12:40:25;102977.00;;;16.02;93.37
65190;BME280;51777;53.570;9.984;2023-02-28T12:42:56;102975.75;;;15.64;92.79
65190;BME280;51777;53.570;9.984;2023-02-28T12:48:12;102956.81;;;13.21;95.08
65190;BME280;51777;53.570;9.984;2023-02-28T12:50:40;102961.41;;;12.92;95.61
65190;BME280;51777;53.570;9.984;2023-02-28T12:53:25;102948.97;;;13.34;94.80
65190;BME280;51777;53.570;9.984;2023-02-28T12:59:09;102934.69;;;11.61;97.03
65190;BME280;51777;53.570;9.984;2023-02-28T13:01:42;102927.88;;;11.46;97.41
65190;BME280;51777;53.570;9.984;2023-02-28T13:10:15;102928.91;;;10.74;98.25
65190;BME280;51777;53.570;9.984;2023-02-28T13:12:52;102923.53;;;11.05;97.59
65190;BME280;51777;53.570;9.984;2023-02-28T13:15:22;102918.38;;;10.77;97.90
65190;BME280;51777;53.570;9.984;2023-02-28T13:17:58;102913.84;;;10.52;98.81
65190;BME280;51777;53.570;9.984;2023-02-28T13:20:35;102909.69;;;10.35;99.00
65190;BME280;51777;53.570;9.984;2023-02-28T13:23:38;102906.03;;;10.68;99.31
65190;BME280;51777;53.570;9.984;2023-02-28T13:26:06;102911.19;;;10.82;98.40
65190;BME280;51777;53.570;9.984;2023-02-28T13:34:41;102898.81;;;10.14;99.86
65190;BME280;51777;53.570;9.984;2023-02-28T13:39:52;102890.13;;;9.71;100.00
65190;BME280;51777;53.570;9.984;2023-02-28T13:47:40;102895.69;;;9.33;100.00
65190;BME280;51777;53.570;9.984;2023-02-28T13:55:36;102894.41;;;9.40;100.00
65190;BME280;51777;53.570;9.984;2023-02-28T14:03:37;102888.47;;;9.70;100.00
65190;BME280;51777;53.570;9.984;2023-02-28T14:06:32;102894.25;;;9.44;100.00
65190;BME280;51777;53.570;9.984;2023-02-28T14:09:28;102899.25;;;9.31;100.00
65190;BME280;51777;53.570;9.984;2023-02-28T14:11:54;102897.66;;;9.28;100.00
65190;BME280;51777;53.570;9.984;2023-02-28T14:17:13;102900.91;;;9.48;100.00
65190;BME280;51777;53.570;9.984;2023-02-28T14:19:40;102900.16;;;9.46;100.00
65190;BME280;51777;53.570;9.984;2023-02-28T14:22:41;102904.63;;;9.42;100.00
65190;BME280;51777;53.570;9.984;2023-02-28T14:28:07;102900.00;;;9.17;100.00
65190;BME280;51777;53.570;9.984;2023-02-28T14:31:13;102903.84;;;9.10;100.00
65190;BME280;51777;53.570;9.984;2023-02-28T14:34:00;102895.16;;;9.27;100.00
65190;BME280;51777;53.570;9.984;2023-02-28T14:36:35;102900.50;;;9.24;100.00
65190;BME280;51777;53.570;9.984;2023-02-28T14:39:13;102896.00;;;8.96;100.00
65190;BME280;51777;53.570;9.984;2023-02-28T14:41:41;102898.50;;;8.81;100.00
65190;BME280;51777;53.570;9.984;2023-02-28T14:44:22;102887.16;;;8.68;100.00
65190;BME280;51777;53.570;9.984;2023-02-28T14:46:50;102897.09;;;8.59;100.00
65190;BME280;51777;53.570;9.984;2023-02-28T14:49:28;102904.00;;;8.58;100.00
65190;BME280;51777;53.570;9.984;2023-02-28T14:52:03;102902.47;;;8.54;100.00
65190;BME280;51777;53.570;9.984;2023-02-28T14:54:31;102899.41;;;8.47;100.00
65190;BME280;51777;53.570;9.984;2023-02-28T14:56:56;102905.97;;;8.53;100.00
65190;BME280;51777;53.570;9.984;2023-02-28T14:59:30;102901.34;;;8.42;100.00
65190;BME280;51777;53.570;9.984;2023-02-28T15:02:19;102898.03;;;8.40;100.00
65190;BME280;51777;53.570;9.984;2023-02-28T15:07:39;102889.75;;;8.34;100.00
65190;BME280;51777;53.570;9.984;2023-02-28T15:12:36;102887.41;;;8.29;100.00
65190;BME280;51777;53.570;9.984;2023-02-28T15:15:03;102882.72;;;8.37;100.00
65190;BME280;51777;53.570;9.984;2023-02-28T15:17:28;102881.44;;;8.46;100.00
65190;BME280;51777;53.570;9.984;2023-02-28T15:19:54;102876.69;;;8.54;100.00